createdAt,value
2018-07-06T00:01:53.653Z,13.32
2018-07-06T00:04:39.728Z,12.60
2018-07-06T00:07:25.756Z,11.20
2018-07-06T00:10:11.947Z,11.22
2018-07-06T00:12:57.938Z,11.45
2018-07-06T00:15:43.904Z,11.93
2018-07-06T00:18:31.056Z,12.28
2018-07-06T00:21:17.122Z,11.12
2018-07-06T00:24:03.214Z,10.90
2018-07-06T00:26:49.285Z,15.60
2018-07-06T00:29:35.684Z,13.75
2018-07-06T00:32:21.726Z,13.25
2018-07-06T00:35:07.818Z,12.80
2018-07-06T00:37:53.889Z,13.28
2018-07-06T00:40:41.472Z,12.93
2018-07-06T00:43:27.454Z,16.37
2018-07-06T00:46:13.586Z,15.08
2018-07-06T00:48:59.680Z,16.85
2018-07-06T00:51:47.256Z,14.30
2018-07-06T00:54:33.356Z,13.85
2018-07-06T00:57:19.494Z,16.27
2018-07-06T01:00:05.583Z,15.75
2018-07-06T01:02:52.187Z,15.65
2018-07-06T01:05:38.146Z,18.25
2018-07-06T01:08:24.224Z,18.65
2018-07-06T01:11:10.514Z,18.52
2018-07-06T01:13:56.881Z,17.20
2018-07-06T01:16:42.979Z,18.05
2018-07-06T01:19:29.300Z,18.70
2018-07-06T01:22:15.372Z,19.45
2018-07-06T01:25:01.562Z,19.00
2018-07-06T01:27:47.588Z,20.12
2018-07-06T01:30:33.677Z,20.08
2018-07-06T01:33:20.686Z,20.08
2018-07-06T01:36:06.813Z,18.77
2018-07-06T01:38:52.785Z,19.30
2018-07-06T01:41:38.698Z,21.25
2018-07-06T01:44:24.587Z,20.68
2018-07-06T01:47:11.080Z,19.37
2018-07-06T01:49:57.081Z,18.98
2018-07-06T01:52:43.124Z,18.48
2018-07-06T01:55:29.116Z,20.37
2018-07-06T01:58:15.417Z,23.52
2018-07-06T02:01:01.542Z,19.80
2018-07-06T02:03:47.760Z,20.27
2018-07-06T02:06:34.250Z,23.83
2018-07-06T02:09:20.342Z,22.20
2018-07-06T02:12:06.290Z,21.37
2018-07-06T02:14:52.464Z,22.15
2018-07-06T02:17:38.516Z,21.42
2018-07-06T02:20:25.020Z,23.15
2018-07-06T02:23:11.101Z,27.93
2018-07-06T02:25:57.148Z,24.12
2018-07-06T02:28:45.593Z,24.75
2018-07-06T02:31:32.000Z,23.18
2018-07-06T02:34:18.129Z,27.30
2018-07-06T02:37:04.441Z,26.60
2018-07-06T02:39:50.520Z,22.67
2018-07-06T02:42:36.973Z,24.90
2018-07-06T02:45:23.069Z,24.90
2018-07-06T02:48:09.574Z,25.17
2018-07-06T02:50:56.404Z,26.00
2018-07-06T02:53:42.593Z,23.87
2018-07-06T02:56:28.536Z,23.27
2018-07-06T02:59:14.745Z,22.85
2018-07-06T03:02:02.219Z,22.82
2018-07-06T03:04:49.073Z,18.92
2018-07-06T03:07:35.014Z,19.15
2018-07-06T03:10:21.137Z,18.95
2018-07-06T03:13:07.245Z,20.48
2018-07-06T03:15:53.382Z,22.62
2018-07-06T03:18:39.397Z,24.65
2018-07-06T03:21:25.429Z,25.15
2018-07-06T03:24:11.517Z,21.65
2018-07-06T03:26:57.669Z,20.72
2018-07-06T03:29:43.724Z,22.13
2018-07-06T03:32:29.941Z,25.43
2018-07-06T03:35:16.041Z,19.45
2018-07-06T03:38:02.514Z,21.12
2018-07-06T03:40:48.469Z,22.65
2018-07-06T03:43:34.524Z,20.32
2018-07-06T03:46:20.693Z,22.58
2018-07-06T03:49:08.006Z,19.92
2018-07-06T03:51:54.145Z,30.68
2018-07-06T03:54:40.420Z,28.12
2018-07-06T03:57:26.550Z,22.95
2018-07-06T04:00:12.685Z,25.65
2018-07-06T04:02:58.781Z,23.45
2018-07-06T04:05:45.093Z,23.85
2018-07-06T04:08:31.200Z,22.60
2018-07-06T04:11:17.293Z,20.32
2018-07-06T04:14:03.393Z,23.22
2018-07-06T04:16:49.383Z,22.15
2018-07-06T04:19:35.501Z,24.15
2018-07-06T04:22:22.570Z,23.90
2018-07-06T04:25:08.513Z,25.43
2018-07-06T04:27:54.766Z,21.37
2018-07-06T04:30:40.649Z,25.08
2018-07-06T04:33:26.734Z,22.93
2018-07-06T04:36:12.777Z,24.25
2018-07-06T04:38:58.821Z,23.02
2018-07-06T04:41:44.954Z,26.85
2018-07-06T04:44:32.545Z,30.12
2018-07-06T04:47:18.621Z,24.23
2018-07-06T04:50:04.477Z,26.68
2018-07-06T04:52:50.583Z,24.20
2018-07-06T04:55:36.937Z,27.70
2018-07-06T04:58:23.042Z,27.98
2018-07-06T05:01:09.325Z,23.07
2018-07-06T05:03:55.342Z,25.68
2018-07-06T05:06:42.363Z,26.23
2018-07-06T05:09:28.393Z,25.50
2018-07-06T05:12:14.832Z,26.48
2018-07-06T05:15:00.777Z,26.75
2018-07-06T05:17:46.944Z,24.20
2018-07-06T05:20:33.049Z,24.05
2018-07-06T05:23:19.378Z,23.62
2018-07-06T05:26:06.245Z,19.80
2018-07-06T05:28:52.905Z,18.42
2018-07-06T05:31:39.545Z,17.92
2018-07-06T05:34:25.759Z,18.57
2018-07-06T05:37:11.885Z,17.07
2018-07-06T05:39:58.257Z,12.20
2018-07-06T05:42:44.457Z,13.25
2018-07-06T05:45:30.829Z,11.12
2018-07-06T05:48:16.867Z,10.32
2018-07-06T05:51:03.177Z,9.90
2018-07-06T05:53:49.175Z,9.15
2018-07-06T05:56:35.161Z,8.73
2018-07-06T05:59:21.326Z,8.03
2018-07-06T06:02:07.818Z,6.10
2018-07-06T06:04:53.765Z,7.30
2018-07-06T06:07:25.809Z,5.97
2018-07-06T06:09:55.032Z,8.30
2018-07-06T06:12:24.158Z,6.80
2018-07-06T06:14:53.826Z,7.00
2018-07-06T06:17:22.944Z,6.00
2018-07-06T06:19:52.069Z,10.65
2018-07-06T06:22:21.435Z,6.15
2018-07-06T06:24:50.912Z,7.60
2018-07-06T06:27:20.013Z,8.25
2018-07-06T06:29:50.006Z,7.28
2018-07-06T06:32:19.097Z,5.95
2018-07-06T06:34:48.229Z,6.15
2018-07-06T06:37:17.423Z,7.78
2018-07-06T06:39:46.821Z,6.42
2018-07-06T06:42:15.925Z,5.55
2018-07-06T06:44:45.068Z,5.70
2018-07-06T06:47:14.116Z,6.65
2018-07-06T06:49:43.684Z,7.25
2018-07-06T06:52:12.961Z,6.17
2018-07-06T06:54:42.092Z,5.92
2018-07-06T06:57:11.209Z,5.42
2018-07-06T06:59:40.577Z,7.20
2018-07-06T07:02:09.760Z,7.65
2018-07-06T07:04:38.828Z,4.92
2018-07-06T07:07:07.880Z,4.87
2018-07-06T07:09:37.359Z,5.72
2018-07-06T07:12:07.937Z,4.75
2018-07-06T07:14:37.161Z,7.62
2018-07-06T07:17:06.335Z,7.53
2018-07-06T07:19:35.441Z,5.83
2018-07-06T07:22:05.447Z,6.70
2018-07-06T07:24:34.645Z,7.28
2018-07-06T07:27:04.021Z,5.15
2018-07-06T07:29:34.144Z,5.17
2018-07-06T07:32:03.326Z,6.30
2018-07-06T07:34:32.838Z,5.40
2018-07-06T07:37:02.576Z,4.87
2018-07-06T07:39:32.201Z,8.10
2018-07-06T07:42:01.385Z,7.10
2018-07-06T07:44:30.456Z,3.80
2018-07-06T07:46:59.933Z,4.78
2018-07-06T07:49:29.152Z,5.42
2018-07-06T07:52:15.272Z,4.35
2018-07-06T07:54:50.312Z,6.42
2018-07-06T07:57:19.795Z,4.25
2018-07-06T07:59:49.533Z,4.15
2018-07-06T08:02:18.927Z,3.27
2018-07-06T08:04:48.628Z,4.30
2018-07-06T08:07:18.376Z,3.00
2018-07-06T08:09:47.557Z,2.60
2018-07-06T08:12:16.676Z,3.12
2018-07-06T08:14:45.917Z,3.17
2018-07-06T08:17:15.057Z,2.87
2018-07-06T08:19:44.349Z,3.67
2018-07-06T08:22:13.472Z,2.83
2018-07-06T08:24:42.645Z,2.55
2018-07-06T08:27:12.865Z,2.90
2018-07-06T08:29:41.986Z,2.00
2018-07-06T08:32:11.034Z,3.17
2018-07-06T08:34:56.956Z,3.20
2018-07-06T08:37:48.028Z,2.85
2018-07-06T08:40:17.432Z,2.65
2018-07-06T08:42:47.908Z,3.40
2018-07-06T08:45:17.094Z,2.77
2018-07-06T08:47:46.963Z,2.60
2018-07-06T08:50:16.104Z,2.87
2018-07-06T08:52:46.217Z,3.65
2018-07-06T08:55:15.366Z,3.62
2018-07-06T08:57:45.448Z,3.40
2018-07-06T09:00:14.696Z,4.03
2018-07-06T09:02:43.881Z,2.52
2018-07-06T09:05:13.669Z,2.15
2018-07-06T09:07:43.784Z,3.42
2018-07-06T09:10:12.925Z,2.60
2018-07-06T09:12:42.256Z,2.42
2018-07-06T09:15:11.479Z,3.85
2018-07-06T09:17:40.637Z,3.22
2018-07-06T09:20:09.898Z,3.25
2018-07-06T09:22:38.953Z,3.22
2018-07-06T09:25:08.449Z,3.30
2018-07-06T09:27:38.037Z,2.95
2018-07-06T09:30:07.377Z,3.20
2018-07-06T09:32:36.640Z,4.72
2018-07-06T09:35:06.032Z,3.98
2018-07-06T09:37:35.149Z,6.75
2018-07-06T09:40:04.395Z,5.53
2018-07-06T09:42:33.498Z,4.67
2018-07-06T09:45:03.514Z,5.78
2018-07-06T09:47:32.691Z,6.37
2018-07-06T09:50:02.376Z,5.62
2018-07-06T09:52:31.989Z,6.20
2018-07-06T09:55:01.425Z,4.95
2018-07-06T09:57:30.573Z,6.03
2018-07-06T10:00:00.730Z,5.28
2018-07-06T10:02:29.870Z,5.40
2018-07-06T10:04:59.029Z,6.10
2018-07-06T10:07:28.105Z,6.47
2018-07-06T10:09:57.277Z,6.15
2018-07-06T10:12:27.071Z,6.35
2018-07-06T10:14:56.165Z,8.60
2018-07-06T10:17:25.386Z,8.15
2018-07-06T10:19:54.540Z,7.15
2018-07-06T10:22:24.198Z,7.00
2018-07-06T10:24:53.407Z,6.97
2018-07-06T10:27:30.687Z,6.97
2018-07-06T10:30:06.789Z,6.83
2018-07-06T10:32:35.977Z,6.42
2018-07-06T10:35:05.450Z,6.85
2018-07-06T10:37:34.558Z,7.40
2018-07-06T10:40:03.874Z,6.03
2018-07-06T10:42:33.682Z,6.30
2018-07-06T10:45:03.906Z,5.03
2018-07-06T10:47:33.021Z,5.28
2018-07-06T10:50:02.202Z,5.42
2018-07-06T10:52:31.642Z,4.80
2018-07-06T10:55:00.766Z,6.08
2018-07-06T10:57:30.194Z,4.58
2018-07-06T10:59:59.545Z,4.80
2018-07-06T11:02:28.709Z,5.17
2018-07-06T11:04:57.820Z,5.00
2018-07-06T11:07:27.355Z,4.75
2018-07-06T11:09:57.726Z,5.15
2018-07-06T11:12:27.125Z,5.78
2018-07-06T11:14:56.277Z,5.47
2018-07-06T11:17:25.341Z,5.75
2018-07-06T11:19:54.417Z,6.33
2018-07-06T11:22:24.385Z,5.20
2018-07-06T11:24:53.521Z,5.03
2018-07-06T11:27:22.729Z,4.60
2018-07-06T11:29:51.874Z,5.67
2018-07-06T11:32:21.026Z,7.97
2018-07-06T11:34:50.168Z,6.42
2018-07-06T11:37:19.264Z,5.70
2018-07-06T11:39:48.892Z,4.42
2018-07-06T11:42:18.016Z,4.92
2018-07-06T11:44:47.393Z,4.03
2018-07-06T11:47:17.447Z,5.00
2018-07-06T11:49:46.545Z,4.15
2018-07-06T11:52:15.940Z,3.40
2018-07-06T11:54:45.976Z,4.55
2018-07-06T11:57:15.250Z,6.00
2018-07-06T11:59:44.330Z,3.95
2018-07-06T12:02:13.434Z,3.40
2018-07-06T12:04:42.597Z,3.98
2018-07-06T12:07:12.533Z,3.80
2018-07-06T12:09:41.891Z,4.15
2018-07-06T12:12:13.672Z,3.85
2018-07-06T12:14:43.383Z,3.92
2018-07-06T12:17:13.648Z,3.90
2018-07-06T12:19:42.819Z,4.67
2018-07-06T12:22:12.533Z,4.25
2018-07-06T12:24:42.481Z,5.00
2018-07-06T12:27:11.553Z,4.47
2018-07-06T12:29:40.754Z,4.65
2018-07-06T12:32:11.113Z,4.33
2018-07-06T12:34:40.249Z,4.42
2018-07-06T12:37:09.338Z,4.35
2018-07-06T12:39:38.881Z,3.98
2018-07-06T12:42:08.006Z,4.45
2018-07-06T12:44:37.097Z,4.97
2018-07-06T12:47:06.307Z,4.70
2018-07-06T12:49:35.925Z,4.40
2018-07-06T12:52:05.061Z,4.60
2018-07-06T12:54:35.728Z,4.60
2018-07-06T12:57:04.952Z,5.22
2018-07-06T12:59:34.040Z,4.87
2018-07-06T13:02:03.348Z,4.60
2018-07-06T13:04:33.119Z,5.22
2018-07-06T13:07:03.873Z,5.30
2018-07-06T13:09:33.198Z,4.90
2018-07-06T13:12:02.277Z,4.62
2018-07-06T13:14:32.980Z,4.87
2018-07-06T13:17:02.085Z,5.22
2018-07-06T13:19:31.181Z,4.97
2018-07-06T13:22:00.265Z,4.90
2018-07-06T13:24:29.886Z,4.55
2018-07-06T13:26:59.069Z,5.30
2018-07-06T13:29:29.055Z,5.45
2018-07-06T13:31:58.180Z,4.50
2018-07-06T13:34:27.296Z,5.20
2018-07-06T13:36:57.081Z,4.53
2018-07-06T13:39:28.034Z,4.42
2018-07-06T13:41:57.219Z,4.83
2018-07-06T13:44:26.523Z,6.70
2018-07-06T13:46:55.630Z,5.42
2018-07-06T13:49:27.362Z,5.08
2018-07-06T13:51:56.506Z,4.83
2018-07-06T13:54:25.615Z,5.10
2018-07-06T13:56:54.853Z,5.17
2018-07-06T13:59:23.962Z,5.58
2018-07-06T14:01:53.210Z,5.12
2018-07-06T14:04:22.357Z,4.40
2018-07-06T14:06:51.488Z,5.10
2018-07-06T14:09:20.597Z,4.58
2018-07-06T14:11:49.785Z,7.60
2018-07-06T14:14:18.957Z,5.33
2018-07-06T14:16:48.286Z,6.60
2018-07-06T14:19:17.865Z,5.17
2018-07-06T14:21:46.967Z,5.03
2018-07-06T14:24:16.262Z,5.58
2018-07-06T14:26:45.888Z,5.42
2018-07-06T14:29:15.064Z,6.20
2018-07-06T14:31:44.206Z,5.97
2018-07-06T14:34:13.409Z,6.72
2018-07-06T14:36:42.597Z,7.67
2018-07-06T14:39:12.048Z,7.12
2018-07-06T14:41:42.881Z,6.25
2018-07-06T14:44:11.978Z,6.15
2018-07-06T14:46:41.139Z,5.78
2018-07-06T14:49:10.536Z,6.33
2018-07-06T14:51:39.710Z,6.75
2018-07-06T14:54:08.897Z,5.80
2018-07-06T14:56:38.387Z,6.40
2018-07-06T14:59:07.523Z,4.90
2018-07-06T15:01:36.610Z,5.35
2018-07-06T15:04:06.177Z,4.80
2018-07-06T15:06:35.504Z,4.20
2018-07-06T15:09:05.230Z,7.33
2018-07-06T15:11:34.618Z,3.83
2018-07-06T15:14:03.714Z,3.75
2018-07-06T15:16:32.795Z,4.87
2018-07-06T15:19:02.261Z,5.25
2018-07-06T15:21:31.422Z,3.83
2018-07-06T15:24:00.530Z,5.80
2018-07-06T15:26:29.721Z,4.05
2018-07-06T15:28:59.257Z,4.15
2018-07-06T15:31:29.509Z,3.80
2018-07-06T15:33:58.885Z,4.17
2018-07-06T15:36:31.974Z,3.40
2018-07-06T15:39:01.381Z,4.53
2018-07-06T15:41:30.606Z,5.75
2018-07-06T15:44:00.565Z,3.72
2018-07-06T15:46:29.820Z,3.00
2018-07-06T15:48:58.972Z,3.85
2018-07-06T15:51:28.153Z,2.80
2018-07-06T15:53:57.525Z,3.55
2018-07-06T15:56:26.761Z,3.60
2018-07-06T15:58:56.524Z,2.40
2018-07-06T16:01:26.448Z,4.97
2018-07-06T16:03:55.561Z,3.25
2018-07-06T16:06:25.911Z,4.55
2018-07-06T16:08:55.041Z,3.15
2018-07-06T16:11:25.206Z,3.60
2018-07-06T16:13:55.095Z,3.40
2018-07-06T16:16:24.424Z,3.62
2018-07-06T16:18:53.544Z,4.92
2018-07-06T16:21:22.661Z,3.20
2018-07-06T16:23:51.996Z,3.22
2018-07-06T16:26:21.089Z,3.37
2018-07-06T16:28:50.277Z,4.00
2018-07-06T16:31:20.525Z,3.55
2018-07-06T16:33:50.486Z,3.90
2018-07-06T16:49:10.181Z,3.85
2018-07-06T16:51:40.839Z,5.70
2018-07-06T16:54:09.973Z,5.42
2018-07-06T16:56:39.081Z,5.85
2018-07-06T16:59:08.157Z,6.33
2018-07-06T17:01:37.460Z,5.37
2018-07-06T17:04:06.633Z,5.30
2018-07-06T17:06:35.734Z,4.33
2018-07-06T17:09:06.042Z,5.22
2018-07-06T17:11:35.152Z,5.58
2018-07-06T17:14:04.241Z,5.00
2018-07-06T17:16:34.032Z,5.80
2018-07-06T17:19:03.184Z,6.53
2018-07-06T17:21:32.453Z,8.78
2018-07-06T17:24:01.768Z,5.85
2018-07-06T17:26:30.854Z,6.87
2018-07-06T17:29:00.637Z,7.10
2018-07-06T17:31:29.777Z,7.42
2018-07-06T17:33:58.853Z,6.17
2018-07-06T17:36:27.997Z,8.20
2018-07-06T17:38:57.277Z,6.90
2018-07-06T17:41:26.579Z,8.35
2018-07-06T17:43:56.676Z,7.58
2018-07-06T17:46:26.105Z,7.58
2018-07-06T17:48:55.192Z,7.60
2018-07-06T17:51:24.285Z,9.80
2018-07-06T17:53:53.768Z,7.95
2018-07-06T17:56:22.983Z,8.63
2018-07-06T17:58:53.092Z,7.33
2018-07-06T18:01:22.573Z,8.60
2018-07-06T18:03:51.719Z,6.90
2018-07-06T18:06:21.604Z,6.50
2018-07-06T18:08:50.749Z,7.50
2018-07-06T18:11:20.459Z,6.70
2018-07-06T18:13:50.470Z,6.92
2018-07-06T18:16:19.869Z,6.90
2018-07-06T18:18:49.213Z,8.50
2018-07-06T18:21:18.353Z,8.10
2018-07-06T18:23:47.505Z,7.17
2018-07-06T18:26:16.544Z,7.55
2018-07-06T18:28:45.667Z,6.78
2018-07-06T18:31:14.948Z,6.78
2018-07-06T18:33:44.065Z,6.70
2018-07-06T18:36:13.152Z,8.83
2018-07-06T18:38:42.488Z,7.25
2018-07-06T18:41:12.110Z,6.80
2018-07-06T18:43:41.270Z,10.03
2018-07-06T18:46:10.825Z,7.40
2018-07-06T18:48:40.004Z,8.28
2018-07-06T18:51:09.123Z,8.15
2018-07-06T18:53:38.249Z,7.80
2018-07-06T18:56:07.532Z,8.45
2018-07-06T18:58:36.788Z,8.35
2018-07-06T19:01:06.455Z,10.08
2018-07-06T19:03:36.412Z,9.20
2018-07-06T19:06:05.623Z,8.00
2018-07-06T19:08:35.348Z,11.40
2018-07-06T19:11:04.485Z,7.92
2018-07-06T19:13:33.618Z,8.80
2018-07-06T19:16:02.744Z,9.73
2018-07-06T19:18:31.917Z,8.13
2018-07-06T19:21:01.469Z,9.63
2018-07-06T19:23:30.516Z,10.25
2018-07-06T19:25:59.642Z,9.38
2018-07-06T19:28:28.752Z,8.28
2018-07-06T19:30:58.148Z,10.90
2018-07-06T19:33:27.305Z,8.40
2018-07-06T19:35:56.434Z,8.23
2018-07-06T19:38:25.549Z,9.00
2018-07-06T19:40:54.600Z,8.45
2018-07-06T19:43:23.717Z,8.68
2018-07-06T19:45:53.073Z,8.83
2018-07-06T19:48:22.218Z,8.60
2018-07-06T19:50:51.340Z,8.53
2018-07-06T19:53:20.584Z,9.45
2018-07-06T19:55:49.709Z,9.00
2018-07-06T19:58:18.868Z,9.08
2018-07-06T20:00:48.051Z,8.80
2018-07-06T20:03:17.107Z,9.50
2018-07-06T20:05:46.196Z,9.13
2018-07-06T20:08:15.576Z,8.58
2018-07-06T20:10:45.533Z,11.10
2018-07-06T20:13:14.692Z,9.58
2018-07-06T20:15:43.725Z,9.03
2018-07-06T20:18:12.855Z,9.35
2018-07-06T20:20:41.988Z,9.18
2018-07-06T20:23:11.532Z,8.95
2018-07-06T20:25:40.630Z,9.40
2018-07-06T20:28:09.729Z,9.50
2018-07-06T20:30:38.921Z,9.90
2018-07-06T20:33:07.994Z,10.58
2018-07-06T20:35:37.193Z,9.90
2018-07-06T20:38:06.620Z,10.28
2018-07-06T20:40:35.709Z,9.93
2018-07-06T20:43:04.804Z,10.13
2018-07-06T20:45:34.128Z,9.98
2018-07-06T20:48:03.633Z,11.25
2018-07-06T20:50:32.688Z,10.30
2018-07-06T20:53:02.065Z,11.05
2018-07-06T20:55:31.164Z,10.65
2018-07-06T20:58:00.228Z,11.90
2018-07-06T21:00:29.585Z,10.85
2018-07-06T21:02:58.659Z,10.95
2018-07-06T21:05:27.756Z,10.58
2018-07-06T21:07:57.156Z,10.85
2018-07-06T21:10:26.280Z,11.53
2018-07-06T21:12:55.373Z,11.22
2018-07-06T21:15:24.523Z,13.20
2018-07-06T21:17:53.641Z,11.78
2018-07-06T21:20:22.749Z,11.33
2018-07-06T21:22:52.270Z,11.68
2018-07-06T21:25:21.773Z,10.40
2018-07-06T21:27:50.898Z,11.40
2018-07-06T21:30:20.018Z,10.65
2018-07-06T21:32:49.137Z,11.53
2018-07-06T21:35:18.226Z,10.90
2018-07-06T21:37:47.640Z,12.90
2018-07-06T21:40:16.732Z,11.18
2018-07-06T21:42:45.823Z,11.48
2018-07-06T21:45:15.192Z,11.65
2018-07-06T21:47:44.341Z,12.88
2018-07-06T21:50:13.653Z,11.48
2018-07-06T21:52:42.771Z,11.63
2018-07-06T21:55:11.921Z,13.80
2018-07-06T21:57:41.045Z,11.80
2018-07-06T22:00:10.153Z,12.20
2018-07-06T22:02:39.368Z,11.65
2018-07-06T22:05:08.440Z,12.37
2018-07-06T22:07:37.599Z,11.75
2018-07-06T22:10:06.676Z,12.05
2018-07-06T22:12:35.802Z,11.78
2018-07-06T22:15:05.296Z,11.85
2018-07-06T22:17:34.425Z,12.07
2018-07-06T22:20:03.497Z,12.25
2018-07-06T22:22:32.687Z,11.48
2018-07-06T22:25:01.941Z,11.57
2018-07-06T22:27:31.132Z,10.88
2018-07-06T22:30:00.373Z,12.45
2018-07-06T22:32:29.591Z,12.55
2018-07-06T22:34:58.628Z,11.22
2018-07-06T22:37:27.792Z,11.35
2018-07-06T22:39:57.104Z,11.88
2018-07-06T22:42:26.204Z,12.07
2018-07-06T22:44:55.524Z,12.55
2018-07-06T22:47:25.189Z,11.78
2018-07-06T22:49:54.280Z,12.13
2018-07-06T22:52:23.612Z,13.40
2018-07-06T22:54:52.692Z,11.43
2018-07-06T22:57:21.793Z,11.93
2018-07-06T22:59:50.957Z,12.73
2018-07-06T23:02:20.121Z,12.60
2018-07-06T23:04:49.301Z,13.30
2018-07-06T23:07:18.494Z,11.40
2018-07-06T23:09:47.621Z,16.17
2018-07-06T23:13:46.322Z,11.28
2018-07-06T23:16:15.460Z,11.03
2018-07-06T23:18:44.549Z,10.98
2018-07-06T23:21:13.689Z,10.82
2018-07-06T23:23:42.756Z,13.15
2018-07-06T23:26:11.919Z,10.18
2018-07-06T23:28:42.233Z,10.72
2018-07-06T23:31:11.341Z,12.55
2018-07-06T23:33:40.414Z,10.00
2018-07-06T23:36:09.496Z,10.20
2018-07-06T23:38:38.575Z,10.28
2018-07-06T23:41:07.796Z,15.20
2018-07-06T23:43:37.120Z,10.70
2018-07-06T23:46:06.206Z,11.97
2018-07-06T23:48:35.265Z,11.12
2018-07-06T23:51:04.404Z,11.30
2018-07-06T23:53:33.790Z,10.60
2018-07-06T23:56:02.909Z,10.50
2018-07-06T23:58:32.321Z,11.18
